sensor_id;sensor_type;location;lat;lon;timestamp;pressure;altitude;pressure_sealevel;temperature;humidity
28797;BME280;24974;54.444;18.560;2023-03-03T00:00:27;101633.31;;;3.86;62.62
28797;BME280;24974;54.444;18.560;2023-03-03T00:03:02;101629.16;;;3.55;62.92
28797;BME280;24974;54.444;18.560;2023-03-03T00:05:35;101636.72;;;3.93;61.64
28797;BME280;24974;54.444;18.560;2023-03-03T00:08:06;101634.66;;;3.72;62.46
28797;BME280;24974;54.444;18.560;2023-03-03T00:10:37;101627.38;;;4.01;61.68
28797;BME280;24974;54.444;18.560;2023-03-03T00:13:23;101610.50;;;3.87;61.71
28797;BME280;24974;54.444;18.560;2023-03-03T00:18:48;101600.69;;;3.46;63.25
28797;BME280;24974;54.444;18.560;2023-03-03T00:26:52;101595.31;;;3.23;63.83
28797;BME280;24974;54.444;18.560;2023-03-03T00:29:43;101593.31;;;3.58;62.91
28797;BME280;24974;54.444;18.560;2023-03-03T00:34:47;101596.38;;;3.10;64.00
28797;BME280;24974;54.444;18.560;2023-03-03T00:37:25;101599.78;;;3.29;63.40
28797;BME280;24974;54.444;18.560;2023-03-03T00:40:22;101590.78;;;3.80;61.91
28797;BME280;24974;54.444;18.560;2023-03-03T00:42:55;101590.66;;;3.35;63.33
28797;BME280;24974;54.444;18.560;2023-03-03T00:45:43;101588.56;;;3.77;61.94
28797;BME280;24974;54.444;18.560;2023-03-03T00:51:00;101590.97;;;3.90;61.57
28797;BME280;24974;54.444;18.560;2023-03-03T00:53:31;101603.41;;;3.46;63.05
28797;BME280;24974;54.444;18.560;2023-03-03T00:56:02;101593.13;;;3.48;63.18
28797;BME280;24974;54.444;18.560;2023-03-03T00:58:33;101598.38;;;3.67;62.14
28797;BME280;24974;54.444;18.560;2023-03-03T01:01:04;101591.22;;;3.89;62.06
28797;BME280;24974;54.444;18.560;2023-03-03T01:03:46;101591.19;;;3.60;62.22
28797;BME280;24974;54.444;18.560;2023-03-03T01:06:17;101582.66;;;3.17;64.24
28797;BME280;24974;54.444;18.560;2023-03-03T01:08:47;101581.72;;;3.23;63.62
28797;BME280;24974;54.444;18.560;2023-03-03T01:11:21;101575.69;;;3.21;64.01
28797;BME280;24974;54.444;18.560;2023-03-03T01:13:53;101572.00;;;3.39;63.47
28797;BME280;24974;54.444;18.560;2023-03-03T01:16:24;101570.75;;;3.58;63.07
28797;BME280;24974;54.444;18.560;2023-03-03T01:18:55;101565.50;;;3.68;63.21
28797;BME280;24974;54.444;18.560;2023-03-03T01:21:26;101570.00;;;3.74;62.66
28797;BME280;24974;54.444;18.560;2023-03-03T01:23:57;101564.81;;;3.21;64.27
28797;BME280;24974;54.444;18.560;2023-03-03T01:26:28;101553.75;;;3.51;63.40
28797;BME280;24974;54.444;18.560;2023-03-03T01:29:00;101552.41;;;3.65;62.98
28797;BME280;24974;54.444;18.560;2023-03-03T01:31:31;101556.78;;;3.38;63.96
28797;BME280;24974;54.444;18.560;2023-03-03T01:34:02;101561.34;;;3.49;64.25
28797;BME280;24974;54.444;18.560;2023-03-03T01:36:33;101559.19;;;2.99;65.54
28797;BME280;24974;54.444;18.560;2023-03-03T01:39:04;101555.00;;;3.20;65.44
28797;BME280;24974;54.444;18.560;2023-03-03T01:41:35;101558.56;;;3.20;65.22
28797;BME280;24974;54.444;18.560;2023-03-03T01:44:10;101563.41;;;3.30;65.02
28797;BME280;24974;54.444;18.560;2023-03-03T06:02:43;101475.53;;;5.58;63.84
28797;BME280;24974;54.444;18.560;2023-03-03T06:05:14;101488.44;;;5.41;64.23
28797;BME280;24974;54.444;18.560;2023-03-03T06:07:44;101487.72;;;5.28;63.98
28797;BME280;24974;54.444;18.560;2023-03-03T06:10:15;101485.44;;;5.42;64.20
28797;BME280;24974;54.444;18.560;2023-03-03T06:12:50;101480.00;;;5.69;64.01
28797;BME280;24974;54.444;18.560;2023-03-03T06:15:22;101482.69;;;5.64;63.21
28797;BME280;24974;54.444;18.560;2023-03-03T06:17:53;101493.22;;;5.82;62.72
28797;BME280;24974;54.444;18.560;2023-03-03T06:20:24;101492.97;;;5.57;63.66
28797;BME280;24974;54.444;18.560;2023-03-03T06:22:55;101500.44;;;5.67;63.47
28797;BME280;24974;54.444;18.560;2023-03-03T06:25:26;101487.31;;;5.64;63.73
28797;BME280;24974;54.444;18.560;2023-03-03T06:27:57;101500.03;;;6.07;62.48
28797;BME280;24974;54.444;18.560;2023-03-03T06:30:28;101489.63;;;5.77;62.99
28797;BME280;24974;54.444;18.560;2023-03-03T06:33:00;101492.91;;;5.52;64.22
28797;BME280;24974;54.444;18.560;2023-03-03T06:35:31;101488.22;;;5.96;62.08
28797;BME280;24974;54.444;18.560;2023-03-03T06:38:01;101488.00;;;6.03;62.72
28797;BME280;24974;54.444;18.560;2023-03-03T06:40:32;101492.13;;;5.78;63.35
28797;BME280;24974;54.444;18.560;2023-03-03T06:43:03;101482.63;;;6.13;61.88
28797;BME280;24974;54.444;18.560;2023-03-03T06:45:34;101484.75;;;5.79;62.87
28797;BME280;24974;54.444;18.560;2023-03-03T06:48:05;101482.41;;;6.20;61.53
28797;BME280;24974;54.444;18.560;2023-03-03T06:50:36;101489.81;;;6.24;61.68
28797;BME280;24974;54.444;18.560;2023-03-03T06:53:14;101483.91;;;6.75;60.28
28797;BME280;24974;54.444;18.560;2023-03-03T06:55:45;101502.25;;;6.10;61.57
28797;BME280;24974;54.444;18.560;2023-03-03T06:58:18;101498.41;;;6.06;61.79
28797;BME280;24974;54.444;18.560;2023-03-03T07:00:55;101491.44;;;6.62;60.23
28797;BME280;24974;54.444;18.560;2023-03-03T07:03:27;101501.97;;;6.43;60.84
28797;BME280;24974;54.444;18.560;2023-03-03T07:06:13;101513.13;;;6.79;59.74
28797;BME280;24974;54.444;18.560;2023-03-03T07:08:46;101522.66;;;6.71;59.68
28797;BME280;24974;54.444;18.560;2023-03-03T07:11:20;101508.44;;;6.69;60.09
28797;BME280;24974;54.444;18.560;2023-03-03T07:13:54;101510.56;;;7.10;58.57
28797;BME280;24974;54.444;18.560;2023-03-03T07:16:26;101522.75;;;6.50;60.10
28797;BME280;24974;54.444;18.560;2023-03-03T07:19:00;101511.72;;;6.71;59.78
28797;BME280;24974;54.444;18.560;2023-03-03T07:21:34;101508.50;;;7.32;58.42
28797;BME280;24974;54.444;18.560;2023-03-03T07:24:25;101503.84;;;6.75;59.37
28797;BME280;24974;54.444;18.560;2023-03-03T07:27:09;101504.16;;;6.84;59.08
28797;BME280;24974;54.444;18.560;2023-03-03T07:29:41;101516.19;;;6.83;59.15
28797;BME280;24974;54.444;18.560;2023-03-03T07:32:39;101512.25;;;6.68;60.04
28797;BME280;24974;54.444;18.560;2023-03-03T07:35:36;101507.28;;;7.08;58.75
28797;BME280;24974;54.444;18.560;2023-03-03T07:38:33;101510.25;;;7.64;57.41
28797;BME280;24974;54.444;18.560;2023-03-03T07:41:11;101508.75;;;7.31;58.62
28797;BME280;24974;54.444;18.560;2023-03-03T07:44:08;101507.81;;;7.05;58.91
28797;BME280;24974;54.444;18.560;2023-03-03T07:46:45;101502.88;;;6.54;59.81
28797;BME280;24974;54.444;18.560;2023-03-03T07:49:33;101512.59;;;7.35;58.17
28797;BME280;24974;54.444;18.560;2023-03-03T07:52:25;101514.75;;;7.27;57.97
28797;BME280;24974;54.444;18.560;2023-03-03T07:55:00;101505.38;;;7.13;58.39
28797;BME280;24974;54.444;18.560;2023-03-03T07:57:35;101510.53;;;7.77;56.67
28797;BME280;24974;54.444;18.560;2023-03-03T08:05:28;101500.66;;;7.76;56.63
28797;BME280;24974;54.444;18.560;2023-03-03T08:08:29;101498.41;;;7.43;57.45
28797;BME280;24974;54.444;18.560;2023-03-03T08:11:03;101494.44;;;7.13;59.01
28797;BME280;24974;54.444;18.560;2023-03-03T08:13:40;101488.81;;;7.45;57.61
28797;BME280;24974;54.444;18.560;2023-03-03T08:18:48;101489.50;;;7.88;56.67
28797;BME280;24974;54.444;18.560;2023-03-03T08:21:21;101497.66;;;7.78;56.79
28797;BME280;24974;54.444;18.560;2023-03-03T08:23:52;101498.84;;;8.43;54.13
28797;BME280;24974;54.444;18.560;2023-03-03T08:26:24;101492.22;;;8.24;55.54
28797;BME280;24974;54.444;18.560;2023-03-03T08:28:55;101495.66;;;9.11;53.23
28797;BME280;24974;54.444;18.560;2023-03-03T08:31:26;101493.00;;;7.68;56.24
28797;BME280;24974;54.444;18.560;2023-03-03T08:33:57;101493.63;;;8.47;54.88
28797;BME280;24974;54.444;18.560;2023-03-03T08:36:28;101479.63;;;8.23;54.43
28797;BME280;24974;54.444;18.560;2023-03-03T08:38:59;101489.47;;;7.83;55.78
28797;BME280;24974;54.444;18.560;2023-03-03T08:41:30;101496.84;;;7.62;56.49
28797;BME280;24974;54.444;18.560;2023-03-03T08:44:01;101497.16;;;7.86;54.86
28797;BME280;24974;54.444;18.560;2023-03-03T08:46:32;101498.28;;;8.46;53.86
28797;BME280;24974;54.444;18.560;2023-03-03T08:49:02;101493.88;;;7.94;54.38
28797;BME280;24974;54.444;18.560;2023-03-03T08:51:33;101490.06;;;8.51;53.55
28797;BME280;24974;54.444;18.560;2023-03-03T08:54:04;101489.22;;;8.56;53.91
28797;BME280;24974;54.444;18.560;2023-03-03T08:56:35;101497.16;;;8.17;54.38
28797;BME280;24974;54.444;18.560;2023-03-03T08:59:06;101497.16;;;8.06;54.86
28797;BME280;24974;54.444;18.560;2023-03-03T09:01:37;101507.84;;;7.98;54.98
28797;BME280;24974;54.444;18.560;2023-03-03T09:04:08;101499.66;;;8.38;54.26
28797;BME280;24974;54.444;18.560;2023-03-03T09:06:39;101499.06;;;7.80;55.35
28797;BME280;24974;54.444;18.560;2023-03-03T09:09:10;101503.47;;;8.58;53.26
28797;BME280;24974;54.444;18.560;2023-03-03T09:11:41;101495.28;;;8.43;53.72
28797;BME280;24974;54.444;18.560;2023-03-03T09:14:16;101487.03;;;8.27;53.96
28797;BME280;24974;54.444;18.560;2023-03-03T09:16:52;101478.59;;;9.78;51.07
28797;BME280;24974;54.444;18.560;2023-03-03T09:19:29;101491.94;;;8.66;52.57
28797;BME280;24974;54.444;18.560;2023-03-03T09:22:17;101495.25;;;8.12;54.06
28797;BME280;24974;54.444;18.560;2023-03-03T09:24:56;101494.13;;;7.93;54.37
28797;BME280;24974;54.444;18.560;2023-03-03T09:27:30;101491.97;;;7.95;55.03
28797;BME280;24974;54.444;18.560;2023-03-03T09:33:15;101491.41;;;7.98;55.00
28797;BME280;24974;54.444;18.560;2023-03-03T09:35:51;101489.78;;;8.12;54.90
28797;BME280;24974;54.444;18.560;2023-03-03T09:38:40;101483.22;;;8.38;53.20
28797;BME280;24974;54.444;18.560;2023-03-03T09:41:40;101495.81;;;8.55;53.23
28797;BME280;24974;54.444;18.560;2023-03-03T10:07:26;101469.53;;;8.44;52.68
28797;BME280;24974;54.444;18.560;2023-03-03T10:13:18;101462.78;;;9.06;50.69
28797;BME280;24974;54.444;18.560;2023-03-03T10:24:02;101466.47;;;10.53;47.93
28797;BME280;24974;54.444;18.560;2023-03-03T10:29:30;101483.03;;;10.08;47.75
28797;BME280;24974;54.444;18.560;2023-03-03T10:32:27;101471.22;;;10.71;46.47
28797;BME280;24974;54.444;18.560;2023-03-03T10:55:23;101469.38;;;11.33;44.51
28797;BME280;24974;54.444;18.560;2023-03-03T10:58:25;101480.72;;;10.84;45.02
28797;BME280;24974;54.444;18.560;2023-03-03T11:07:01;101465.28;;;10.35;46.71
28797;BME280;24974;54.444;18.560;2023-03-03T11:18:02;101453.78;;;13.60;39.49
28797;BME280;24974;54.444;18.560;2023-03-03T11:23:53;101445.34;;;13.43;39.34
28797;BME280;24974;54.444;18.560;2023-03-03T11:32:20;101446.50;;;12.27;41.52
28797;BME280;24974;54.444;18.560;2023-03-03T11:34:57;101434.59;;;13.78;39.38
28797;BME280;24974;54.444;18.560;2023-03-03T11:38:01;101423.22;;;15.69;35.54
28797;BME280;24974;54.444;18.560;2023-03-03T11:40:56;101416.97;;;15.29;36.58
28797;BME280;24974;54.444;18.560;2023-03-03T11:43:33;101411.09;;;14.42;37.27
28797;BME280;24974;54.444;18.560;2023-03-03T11:46:12;101402.78;;;14.11;38.10
28797;BME280;24974;54.444;18.560;2023-03-03T11:48:57;101394.88;;;14.80;37.01
28797;BME280;24974;54.444;18.560;2023-03-03T11:55:07;101384.91;;;14.40;37.59
28797;BME280;24974;54.444;18.560;2023-03-03T12:03:32;101362.91;;;17.69;32.39
28797;BME280;24974;54.444;18.560;2023-03-03T12:08:48;101360.78;;;17.33;32.01
28797;BME280;24974;54.444;18.560;2023-03-03T12:14:24;101349.34;;;17.05;32.41
28797;BME280;24974;54.444;18.560;2023-03-03T12:17:00;101350.97;;;17.69;32.06
28797;BME280;24974;54.444;18.560;2023-03-03T12:22:59;101346.63;;;16.29;32.83
28797;BME280;24974;54.444;18.560;2023-03-03T12:25:46;101346.16;;;17.15;31.39
28797;BME280;24974;54.444;18.560;2023-03-03T12:28:27;101321.03;;;15.33;33.92
28797;BME280;24974;54.444;18.560;2023-03-03T12:34:23;101332.28;;;17.36;30.92
28797;BME280;24974;54.444;18.560;2023-03-03T12:45:43;101311.25;;;19.39;27.87
28797;BME280;24974;54.444;18.560;2023-03-03T12:49:04;101316.09;;;19.14;27.43
28797;BME280;24974;54.444;18.560;2023-03-03T12:54:27;101293.28;;;17.66;28.89
28797;BME280;24974;54.444;18.560;2023-03-03T13:14:25;101296.59;;;16.16;31.12
28797;BME280;24974;54.444;18.560;2023-03-03T13:19:58;101273.06;;;17.44;29.22
28797;BME280;24974;54.444;18.560;2023-03-03T13:28:27;101267.84;;;17.43;29.47
28797;BME280;24974;54.444;18.560;2023-03-03T13:31:07;101274.78;;;16.44;30.35
28797;BME280;24974;54.444;18.560;2023-03-03T13:33:46;101272.63;;;17.00;29.60
28797;BME280;24974;54.444;18.560;2023-03-03T13:36:44;101269.09;;;16.70;29.75
28797;BME280;24974;54.444;18.560;2023-03-03T13:39:24;101273.78;;;16.78;30.17
28797;BME280;24974;54.444;18.560;2023-03-03T13:42:01;101263.22;;;16.93;29.37
28797;BME280;24974;54.444;18.560;2023-03-03T13:44:40;101256.41;;;16.61;29.77
28797;BME280;24974;54.444;18.560;2023-03-03T13:47:23;101259.94;;;17.32;29.07
28797;BME280;24974;54.444;18.560;2023-03-03T13:50:27;101267.84;;;16.50;30.29
28797;BME280;24974;54.444;18.560;2023-03-03T13:56:04;101261.78;;;16.57;30.28
28797;BME280;24974;54.444;18.560;2023-03-03T13:59:08;101256.03;;;17.46;28.72
28797;BME280;24974;54.444;18.560;2023-03-03T14:01:51;101250.28;;;17.63;29.20
28797;BME280;24974;54.444;18.560;2023-03-03T14:07:36;101259.28;;;16.05;31.03
28797;BME280;24974;54.444;18.560;2023-03-03T14:10:31;101232.88;;;17.87;29.51
28797;BME280;24974;54.444;18.560;2023-03-03T14:13:08;101235.09;;;16.73;30.82
28797;BME280;24974;54.444;18.560;2023-03-03T14:15:57;101237.47;;;14.96;32.67
28797;BME280;24974;54.444;18.560;2023-03-03T14:18:36;101242.75;;;16.47;31.00
28797;BME280;24974;54.444;18.560;2023-03-03T14:24:16;101224.41;;;15.40;32.55
28797;BME280;24974;54.444;18.560;2023-03-03T14:26:52;101238.13;;;14.76;33.70
28797;BME280;24974;54.444;18.560;2023-03-03T14:32:18;101234.69;;;13.42;35.81
28797;BME280;24974;54.444;18.560;2023-03-03T14:34:58;101228.44;;;12.56;37.64
28797;BME280;24974;54.444;18.560;2023-03-03T14:37:42;101224.59;;;12.16;38.07
28797;BME280;24974;54.444;18.560;2023-03-03T14:40:19;101225.41;;;12.16;38.84
28797;BME280;24974;54.444;18.560;2023-03-03T14:48:22;101207.16;;;10.81;41.31
28797;BME280;24974;54.444;18.560;2023-03-03T14:51:14;101211.25;;;11.95;39.48
28797;BME280;24974;54.444;18.560;2023-03-03T14:53:48;101197.34;;;11.73;39.34
28797;BME280;24974;54.444;18.560;2023-03-03T14:56:29;101200.25;;;11.95;39.86
28797;BME280;24974;54.444;18.560;2023-03-03T14:59:19;101221.97;;;11.18;39.85
28797;BME280;24974;54.444;18.560;2023-03-03T15:04:48;101197.94;;;11.56;39.58
28797;BME280;24974;54.444;18.560;2023-03-03T15:09:55;101193.09;;;11.02;40.73
28797;BME280;24974;54.444;18.560;2023-03-03T15:17:41;101177.88;;;10.72;41.06
28797;BME280;24974;54.444;18.560;2023-03-03T15:20:41;101173.31;;;10.67;41.16
28797;BME280;24974;54.444;18.560;2023-03-03T15:26:09;101163.66;;;11.02;40.45
28797;BME280;24974;54.444;18.560;2023-03-03T15:29:01;101156.22;;;11.49;39.39
28797;BME280;24974;54.444;18.560;2023-03-03T15:43:39;101139.06;;;11.25;39.53
28797;BME280;24974;54.444;18.560;2023-03-03T15:46:41;101132.88;;;10.49;41.15
28797;BME280;24974;54.444;18.560;2023-03-03T15:49:28;101124.31;;;10.13;42.07
28797;BME280;24974;54.444;18.560;2023-03-03T15:58:31;101116.88;;;9.70;43.57
28797;BME280;24974;54.444;18.560;2023-03-03T16:01:28;101107.25;;;9.25;44.91
28797;BME280;24974;54.444;18.560;2023-03-03T16:04:09;101099.59;;;9.70;44.31
28797;BME280;24974;54.444;18.560;2023-03-03T16:06:48;101088.47;;;10.04;43.43
28797;BME280;24974;54.444;18.560;2023-03-03T16:12:35;101087.19;;;9.96;43.97
28797;BME280;24974;54.444;18.560;2023-03-03T16:15:24;101083.69;;;9.72;44.75
28797;BME280;24974;54.444;18.560;2023-03-03T16:35:28;101064.91;;;8.49;47.49
28797;BME280;24974;54.444;18.560;2023-03-03T16:38:19;101048.31;;;8.99;46.52
28797;BME280;24974;54.444;18.560;2023-03-03T16:40:54;101041.00;;;8.60;47.51
28797;BME280;24974;54.444;18.560;2023-03-03T16:44:10;101044.59;;;8.55;47.50
28797;BME280;24974;54.444;18.560;2023-03-03T16:46:37;101039.31;;;8.35;48.78
28797;BME280;24974;54.444;18.560;2023-03-03T16:49:23;101041.31;;;8.19;48.46
28797;BME280;24974;54.444;18.560;2023-03-03T16:52:09;101035.88;;;8.48;47.92
28797;BME280;24974;54.444;18.560;2023-03-03T17:06:26;101023.44;;;8.27;49.46
28797;BME280;24974;54.444;18.560;2023-03-03T17:12:36;101021.22;;;7.40;51.83
28797;BME280;24974;54.444;18.560;2023-03-03T17:21:17;101008.91;;;7.43;52.82
28797;BME280;24974;54.444;18.560;2023-03-03T17:36:18;100997.97;;;7.38;54.46
28797;BME280;24974;54.444;18.560;2023-03-03T17:39:07;101003.31;;;7.09;55.30
28797;BME280;24974;54.444;18.560;2023-03-03T17:41:57;100997.94;;;7.48;54.32
28797;BME280;24974;54.444;18.560;2023-03-03T17:54:14;101018.69;;;6.74;56.53
28797;BME280;24974;54.444;18.560;2023-03-03T18:17:08;100978.50;;;6.80;57.53
28797;BME280;24974;54.444;18.560;2023-03-03T18:25:10;100965.13;;;6.83;57.93
28797;BME280;24974;54.444;18.560;2023-03-03T18:27:44;100965.44;;;6.56;58.59
28797;BME280;24974;54.444;18.560;2023-03-03T18:34:01;100967.38;;;6.61;57.91
28797;BME280;24974;54.444;18.560;2023-03-03T18:36:49;100959.81;;;7.22;56.44
28797;BME280;24974;54.444;18.560;2023-03-03T18:44:46;100948.00;;;7.32;55.85
28797;BME280;24974;54.444;18.560;2023-03-03T18:47:17;100941.03;;;7.00;56.29
28797;BME280;24974;54.444;18.560;2023-03-03T18:52:25;100940.31;;;6.75;56.21
28797;BME280;24974;54.444;18.560;2023-03-03T18:57:41;100909.06;;;7.01;55.73
28797;BME280;24974;54.444;18.560;2023-03-03T19:00:30;100910.25;;;6.75;56.75
28797;BME280;24974;54.444;18.560;2023-03-03T19:03:02;100928.19;;;6.96;55.56
28797;BME280;24974;54.444;18.560;2023-03-03T19:05:49;100929.81;;;7.07;55.12
28797;BME280;24974;54.444;18.560;2023-03-03T19:20:10;100910.25;;;6.69;56.61
28797;BME280;24974;54.444;18.560;2023-03-03T19:22:48;100897.13;;;6.77;55.98
28797;BME280;24974;54.444;18.560;2023-03-03T19:25:22;100915.81;;;6.24;57.53
28797;BME280;24974;54.444;18.560;2023-03-03T19:31:01;100907.59;;;7.19;55.45
28797;BME280;24974;54.444;18.560;2023-03-03T19:48:20;100902.66;;;7.21;55.73
28797;BME280;24974;54.444;18.560;2023-03-03T19:53:42;100896.66;;;6.49;56.90
28797;BME280;24974;54.444;18.560;2023-03-03T19:59:10;100902.09;;;5.37;59.35
28797;BME280;24974;54.444;18.560;2023-03-03T20:08:01;100888.84;;;6.02;57.86
28797;BME280;24974;54.444;18.560;2023-03-03T20:10:46;100896.06;;;6.67;55.98
28797;BME280;24974;54.444;18.560;2023-03-03T20:31:30;100885.78;;;6.29;57.28
28797;BME280;24974;54.444;18.560;2023-03-03T20:39:17;100869.38;;;6.44;56.59
28797;BME280;24974;54.444;18.560;2023-03-03T20:45:17;100840.22;;;6.24;57.51
28797;BME280;24974;54.444;18.560;2023-03-03T20:56:50;100843.59;;;6.76;55.63
28797;BME280;24974;54.444;18.560;2023-03-03T21:05:16;100788.53;;;6.53;56.05
28797;BME280;24974;54.444;18.560;2023-03-03T21:07:56;100797.34;;;6.30;56.31
28797;BME280;24974;54.444;18.560;2023-03-03T21:10:36;100793.06;;;6.03;56.57
28797;BME280;24974;54.444;18.560;2023-03-03T21:16:02;100807.72;;;6.33;56.04
28797;BME280;24974;54.444;18.560;2023-03-03T21:18:35;100791.19;;;5.94;57.12
28797;BME280;24974;54.444;18.560;2023-03-03T21:21:07;100786.56;;;6.64;55.77
28797;BME280;24974;54.444;18.560;2023-03-03T21:23:38;100787.19;;;6.51;56.02
28797;BME280;24974;54.444;18.560;2023-03-03T21:26:09;100766.75;;;6.38;56.35
28797;BME280;24974;54.444;18.560;2023-03-03T21:28:58;100746.47;;;5.79;57.40
28797;BME280;24974;54.444;18.560;2023-03-03T21:31:49;100759.31;;;6.59;55.13
28797;BME280;24974;54.444;18.560;2023-03-03T21:34:38;100766.34;;;6.00;56.68
28797;BME280;24974;54.444;18.560;2023-03-03T21:37:13;100726.28;;;5.65;57.92
28797;BME280;24974;54.444;18.560;2023-03-03T21:40:12;100716.88;;;6.27;56.07
28797;BME280;24974;54.444;18.560;2023-03-03T21:42:43;100717.97;;;6.21;55.94
28797;BME280;24974;54.444;18.560;2023-03-03T21:45:15;100707.19;;;6.50;56.02
28797;BME280;24974;54.444;18.560;2023-03-03T21:47:47;100698.69;;;6.02;56.82
28797;BME280;24974;54.444;18.560;2023-03-03T21:50:18;100703.09;;;6.48;56.25
28797;BME280;24974;54.444;18.560;2023-03-03T21:52:52;100710.53;;;6.32;57.31
28797;BME280;24974;54.444;18.560;2023-03-03T21:55:22;100714.16;;;6.71;56.05
28797;BME280;24974;54.444;18.560;2023-03-03T21:57:53;100706.75;;;6.28;57.36
28797;BME280;24974;54.444;18.560;2023-03-03T22:00:24;100706.16;;;6.85;55.51
28797;BME280;24974;54.444;18.560;2023-03-03T22:02:55;100698.13;;;6.00;57.49
28797;BME280;24974;54.444;18.560;2023-03-03T22:05:27;100682.66;;;6.84;56.23
28797;BME280;24974;54.444;18.560;2023-03-03T22:07:57;100696.75;;;6.57;56.68
28797;BME280;24974;54.444;18.560;2023-03-03T22:10:28;100716.28;;;6.30;57.88
28797;BME280;24974;54.444;18.560;2023-03-03T22:12:59;100682.41;;;7.15;55.87
28797;BME280;24974;54.444;18.560;2023-03-03T22:15:30;100686.28;;;6.25;58.19
28797;BME280;24974;54.444;18.560;2023-03-03T22:18:03;100679.00;;;7.28;55.38
28797;BME280;24974;54.444;18.560;2023-03-03T22:20:34;100681.06;;;7.41;55.33
28797;BME280;24974;54.444;18.560;2023-03-03T22:23:05;100684.13;;;7.06;56.80
28797;BME280;24974;54.444;18.560;2023-03-03T22:25:35;100693.97;;;6.67;58.55
28797;BME280;24974;54.444;18.560;2023-03-03T22:28:07;100680.81;;;7.09;56.71
28797;BME280;24974;54.444;18.560;2023-03-03T22:30:38;100666.84;;;7.68;55.17
28797;BME280;24974;54.444;18.560;2023-03-03T22:33:08;100684.50;;;6.94;57.06
28797;BME280;24974;54.444;18.560;2023-03-03T22:35:39;100672.63;;;7.38;56.51
28797;BME280;24974;54.444;18.560;2023-03-03T22:38:10;100664.22;;;6.66;58.22
28797;BME280;24974;54.444;18.560;2023-03-03T22:40:41;100663.28;;;7.15;56.92
28797;BME280;24974;54.444;18.560;2023-03-03T22:43:12;100664.13;;;7.10;56.63
28797;BME280;24974;54.444;18.560;2023-03-03T22:45:44;100658.66;;;7.10;57.42
28797;BME280;24974;54.444;18.560;2023-03-03T22:48:14;100647.72;;;7.15;57.72
28797;BME280;24974;54.444;18.560;2023-03-03T22:50:45;100655.88;;;6.47;59.43
28797;BME280;24974;54.444;18.560;2023-03-03T22:53:17;100658.00;;;7.23;57.59
28797;BME280;24974;54.444;18.560;2023-03-03T22:55:48;100649.31;;;7.69;56.41
28797;BME280;24974;54.444;18.560;2023-03-03T22:58:20;100643.31;;;7.43;57.34
28797;BME280;24974;54.444;18.560;2023-03-03T23:00:54;100631.25;;;6.91;58.49
28797;BME280;24974;54.444;18.560;2023-03-03T23:03:26;100616.97;;;6.65;59.90
28797;BME280;24974;54.444;18.560;2023-03-03T23:05:57;100618.59;;;7.00;59.12
28797;BME280;24974;54.444;18.560;2023-03-03T23:08:28;100615.47;;;6.83;59.88
28797;BME280;24974;54.444;18.560;2023-03-03T23:10:59;100595.13;;;6.65;59.58
28797;BME280;24974;54.444;18.560;2023-03-03T23:13:29;100608.66;;;6.81;59.59
28797;BME280;24974;54.444;18.560;2023-03-03T23:16:01;100590.16;;;7.31;58.89
28797;BME280;24974;54.444;18.560;2023-03-03T23:18:32;100581.47;;;7.23;58.86
28797;BME280;24974;54.444;18.560;2023-03-03T23:21:03;100593.50;;;6.98;60.23
28797;BME280;24974;54.444;18.560;2023-03-03T23:23:34;100604.28;;;6.80;60.88
28797;BME280;24974;54.444;18.560;2023-03-03T23:26:05;100596.47;;;6.68;60.55
28797;BME280;24974;54.444;18.560;2023-03-03T23:28:36;100598.34;;;7.31;59.46
28797;BME280;24974;54.444;18.560;2023-03-03T23:31:07;100587.41;;;7.31;59.03
28797;BME280;24974;54.444;18.560;2023-03-03T23:33:37;100591.19;;;7.35;58.59
28797;BME280;24974;54.444;18.560;2023-03-03T23:36:09;100586.72;;;6.91;60.32
28797;BME280;24974;54.444;18.560;2023-03-03T23:38:39;100587.94;;;7.56;58.71
28797;BME280;24974;54.444;18.560;2023-03-03T23:41:10;100580.00;;;7.07;59.90
28797;BME280;24974;54.444;18.560;2023-03-03T23:43:41;100580.69;;;7.47;59.01
28797;BME280;24974;54.444;18.560;2023-03-03T23:46:12;100575.50;;;7.88;57.56
28797;BME280;24974;54.444;18.560;2023-03-03T23:48:44;100580.13;;;7.69;58.21
28797;BME280;24974;54.444;18.560;2023-03-03T23:51:15;100577.88;;;7.95;57.50
28797;BME280;24974;54.444;18.560;2023-03-03T23:53:46;100583.72;;;7.88;57.97
28797;BME280;24974;54.444;18.560;2023-03-03T23:56:17;100578.75;;;7.90;57.66
28797;BME280;24974;54.444;18.560;2023-03-03T23:58:48;100568.53;;;7.53;58.61
